Time;durP1;ratioP1;P1;durP2;ratioP2;P2;SDS_P1;SDS_P2;PMS_P1;PMS_P2;Temp;Humidity;BMP_temperature;BMP_pressure;BME280_temperature;BME280_humidity;BME280_pressure;Samples;Min_cycle;Max_cycle;Signal;HPM_P1;HPM_P2
2021/08/30 00:01:53;;;;;;;12.25;8.48;;;17.60;99.90;;;;;;5016049;28;20644;-83
2021/08/30 00:04:19;;;;;;;10.25;8.65;;;17.60;99.90;;;;;;5014745;28;20562;-83
2021/08/30 00:06:44;;;;;;;16.10;9.50;;;17.60;99.90;;;;;;5014789;28;20667;-85
2021/08/30 00:09:10;;;;;;;9.75;8.10;;;17.70;99.90;;;;;;5014890;28;20696;-83
2021/08/30 00:11:36;;;;;;;14.52;8.48;;;17.60;99.90;;;;;;5014571;28;20176;-88
2021/08/30 00:14:03;;;;;;;10.95;7.88;;;17.60;99.90;;;;;;5014451;28;20727;-84
2021/08/30 00:16:29;;;;;;;10.50;8.48;;;17.50;99.90;;;;;;5014189;28;20180;-83
2021/08/30 00:18:55;;;;;;;17.92;8.55;;;17.50;99.90;;;;;;5016269;28;20186;-85
2021/08/30 00:21:21;;;;;;;11.63;8.63;;;17.60;99.90;;;;;;5016003;28;20161;-83
2021/08/30 00:23:46;;;;;;;9.65;8.38;;;17.60;99.90;;;;;;5014692;28;20238;-86
2021/08/30 00:26:12;;;;;;;11.35;8.50;;;17.60;99.90;;;;;;5014857;28;20640;-84
2021/08/30 00:28:40;;;;;;;11.07;8.48;;;17.50;99.90;;;;;;5014443;28;20237;-83
2021/08/30 00:31:05;;;;;;;10.40;8.52;;;17.40;99.90;;;;;;5014996;28;20164;-86
2021/08/30 00:33:31;;;;;;;10.52;7.95;;;17.40;99.90;;;;;;5015794;28;20208;-87
2021/08/30 00:35:57;;;;;;;12.48;8.65;;;17.50;99.90;;;;;;5016103;28;20172;-85
2021/08/30 00:38:22;;;;;;;12.55;8.93;;;17.60;99.90;;;;;;5015582;28;20192;-88
2021/08/30 00:40:48;;;;;;;11.45;8.55;;;17.60;99.90;;;;;;5014245;28;20173;-84
2021/08/30 00:43:13;;;;;;;11.88;9.20;;;17.60;99.90;;;;;;5013913;28;20176;-87
2021/08/30 00:45:39;;;;;;;15.73;8.32;;;17.80;99.90;;;;;;5014822;28;20172;-89
2021/08/30 00:48:05;;;;;;;10.52;8.52;;;17.80;99.90;;;;;;5014270;28;20561;-83
2021/08/30 00:50:31;;;;;;;11.63;8.15;;;17.70;99.90;;;;;;5013177;28;20580;-85
2021/08/30 00:52:57;;;;;;;10.50;7.70;;;17.70;99.90;;;;;;5014065;28;20216;-84
2021/08/30 00:55:23;;;;;;;11.05;8.00;;;17.60;99.90;;;;;;5013849;28;20238;-89
2021/08/30 00:57:50;;;;;;;14.77;8.88;;;17.70;99.90;;;;;;5014881;28;20192;-84
2021/08/30 01:00:16;;;;;;;13.40;9.30;;;17.70;99.90;;;;;;5014033;28;20304;-90
2021/08/30 01:02:43;;;;;;;9.63;7.53;;;17.80;99.90;;;;;;5014256;28;20215;-86
2021/08/30 01:05:11;;;;;;;12.75;8.57;;;17.90;99.90;;;;;;5015776;28;20164;-87
2021/08/30 01:07:55;;;;;;;17.38;10.10;;;17.90;99.90;;;;;;5015346;28;20192;-88
2021/08/30 01:10:36;;;;;;;12.00;7.95;;;18.00;99.90;;;;;;5014875;28;20194;-86
2021/08/30 01:13:08;;;;;;;9.73;7.70;;;17.80;99.90;;;;;;5014102;28;20620;-88
2021/08/30 01:15:40;;;;;;;7.90;7.00;;;17.80;99.90;;;;;;5014182;28;20184;-88
2021/08/30 01:18:20;;;;;;;9.15;8.07;;;17.70;99.90;;;;;;5014578;28;20272;-87
2021/08/30 01:20:48;;;;;;;11.98;7.90;;;17.80;99.90;;;;;;5014768;28;20176;-85
2021/08/30 01:23:15;;;;;;;11.23;8.88;;;17.70;99.90;;;;;;5020369;28;20181;-82
2021/08/30 01:25:41;;;;;;;17.13;7.65;;;17.60;99.90;;;;;;5022274;28;20183;-89
2021/08/30 01:28:07;;;;;;;9.73;7.53;;;17.80;99.90;;;;;;5015157;28;20211;-86
2021/08/30 01:30:39;;;;;;;15.93;8.63;;;17.80;99.90;;;;;;5013987;28;20168;-87
2021/08/30 01:33:05;;;;;;;9.30;7.60;;;17.80;99.90;;;;;;5015101;28;20161;-89
2021/08/30 01:35:31;;;;;;;17.85;8.90;;;17.90;99.90;;;;;;5013850;28;20172;-83
2021/08/30 01:38:03;;;;;;;9.60;7.82;;;17.70;99.90;;;;;;5014253;28;20649;-88
2021/08/30 01:40:30;;;;;;;13.05;7.78;;;17.70;99.90;;;;;;5013557;28;20184;-83
2021/08/30 01:42:59;;;;;;;14.80;9.10;;;17.70;99.90;;;;;;5012813;28;20172;-88
2021/08/30 01:45:31;;;;;;;12.02;8.32;;;17.70;99.90;;;;;;5012735;28;20268;-84
2021/08/30 01:48:00;;;;;;;14.43;8.07;;;17.80;99.90;;;;;;5012764;28;20184;-85
2021/08/30 01:50:27;;;;;;;14.35;8.70;;;17.70;99.90;;;;;;5012600;28;20173;-83
2021/08/30 01:52:55;;;;;;;16.20;9.20;;;17.70;99.90;;;;;;5012025;28;20199;-83
2021/08/30 01:55:42;;;;;;;15.48;8.18;;;17.50;99.90;;;;;;5013351;28;20208;-82
2021/08/30 02:00:53;;;;;;;12.77;8.60;;;17.70;99.90;;;;;;5013320;28;20580;-83
2021/08/30 02:03:29;;;;;;;11.65;9.40;;;17.70;99.90;;;;;;5013324;28;20196;-82
2021/08/30 02:06:01;;;;;;;16.25;8.85;;;17.90;99.90;;;;;;5012253;28;20510;-82
2021/08/30 02:08:28;;;;;;;18.42;9.43;;;17.80;99.90;;;;;;5012019;28;20254;-83
2021/08/30 02:11:00;;;;;;;14.57;10.23;;;17.80;99.90;;;;;;5012060;28;20169;-85
2021/08/30 02:13:28;;;;;;;12.73;8.25;;;17.70;99.90;;;;;;5013043;28;20200;-82
2021/08/30 02:16:00;;;;;;;14.23;8.93;;;17.70;99.90;;;;;;5012060;28;20183;-82
2021/08/30 02:18:26;;;;;;;18.98;9.80;;;17.60;99.90;;;;;;5012036;28;20196;-82
2021/08/30 02:21:20;;;;;;;17.63;10.93;;;17.60;99.90;;;;;;5012111;28;20695;-82
2021/08/30 02:24:25;;;;;;;18.25;8.98;;;17.60;99.90;;;;;;5006179;28;20180;-85
2021/08/30 02:27:20;;;;;;;14.05;8.98;;;17.50;99.90;;;;;;5001708;28;20652;-82
2021/08/30 02:29:52;;;;;;;17.23;9.48;;;17.70;99.90;;;;;;5011885;28;20174;-82
2021/08/30 02:32:19;;;;;;;21.60;9.43;;;17.60;99.90;;;;;;5013133;28;20180;-83
2021/08/30 02:34:48;;;;;;;14.95;8.90;;;17.60;99.90;;;;;;5011958;28;20207;-82
2021/08/30 02:37:15;;;;;;;14.35;10.18;;;17.50;99.90;;;;;;5011564;28;20552;-82
2021/08/30 02:39:47;;;;;;;13.70;8.60;;;17.40;99.90;;;;;;5011632;28;20203;-82
2021/08/30 02:42:14;;;;;;;13.68;8.93;;;17.40;99.90;;;;;;5011610;28;20548;-82
2021/08/30 02:44:41;;;;;;;16.67;9.80;;;17.40;99.90;;;;;;5013067;28;20169;-82
2021/08/30 02:47:08;;;;;;;14.23;9.65;;;17.50;99.90;;;;;;5013189;28;20227;-82
2021/08/30 02:49:33;;;;;;;11.52;8.90;;;17.60;99.90;;;;;;5011271;28;20175;-82
2021/08/30 02:52:04;;;;;;;9.77;8.77;;;17.60;99.90;;;;;;5011158;28;20530;-83
2021/08/30 02:54:33;;;;;;;19.45;9.18;;;17.60;99.90;;;;;;5011545;28;20274;-82
2021/08/30 02:57:01;;;;;;;14.23;9.43;;;17.70;99.90;;;;;;5011596;28;20188;-82
2021/08/30 02:59:28;;;;;;;14.85;9.02;;;17.60;99.90;;;;;;5011482;28;20183;-81
2021/08/30 03:01:54;;;;;;;13.77;9.93;;;17.80;99.90;;;;;;5012635;28;20187;-82
2021/08/30 03:04:20;;;;;;;13.00;9.68;;;17.80;99.90;;;;;;5011406;28;20172;-82
2021/08/30 03:06:47;;;;;;;13.50;9.25;;;17.90;99.90;;;;;;5011119;28;20255;-82
2021/08/30 03:09:13;;;;;;;19.48;8.52;;;17.70;99.90;;;;;;5011371;28;20257;-82
2021/08/30 03:11:39;;;;;;;12.93;9.23;;;17.40;99.90;;;;;;5011093;28;20654;-82
2021/08/30 03:14:06;;;;;;;11.57;9.73;;;17.50;99.90;;;;;;5013027;28;20208;-82
2021/08/30 03:16:35;;;;;;;18.05;9.32;;;17.50;99.90;;;;;;5016293;28;20177;-82
2021/08/30 03:19:01;;;;;;;12.90;8.70;;;17.40;99.90;;;;;;5015176;28;20636;-82
2021/08/30 03:21:28;;;;;;;15.73;9.85;;;17.50;99.90;;;;;;5014959;28;21345;-81
2021/08/30 03:23:55;;;;;;;15.98;9.13;;;17.60;99.90;;;;;;5015049;28;20179;-82
2021/08/30 03:26:22;;;;;;;13.90;9.35;;;17.40;99.90;;;;;;5016434;28;20654;-81
2021/08/30 03:28:50;;;;;;;12.93;9.02;;;17.20;99.90;;;;;;5015229;28;20250;-82
2021/08/30 03:31:16;;;;;;;16.85;8.63;;;17.30;99.90;;;;;;5014896;28;20168;-82
2021/08/30 03:33:43;;;;;;;14.18;8.85;;;17.20;99.90;;;;;;5015261;28;20206;-81
2021/08/30 03:36:10;;;;;;;18.10;9.60;;;17.30;99.90;;;;;;5015385;28;20169;-82
2021/08/30 03:38:37;;;;;;;11.85;9.07;;;17.30;99.90;;;;;;5015054;28;20550;-82
2021/08/30 03:41:04;;;;;;;11.68;7.78;;;17.30;99.90;;;;;;5016387;28;20168;-82
2021/08/30 03:43:31;;;;;;;12.60;8.60;;;17.20;99.90;;;;;;5015902;28;20169;-81
2021/08/30 03:45:58;;;;;;;10.75;8.55;;;17.30;99.90;;;;;;5014779;28;20165;-82
2021/08/30 03:48:23;;;;;;;15.10;8.85;;;17.20;99.90;;;;;;5014779;28;20188;-82
2021/08/30 03:50:53;;;;;;;9.73;8.75;;;17.20;99.90;;;;;;5015283;28;20625;-83
2021/08/30 03:53:21;;;;;;;12.93;8.32;;;17.30;99.90;;;;;;5014644;28;20184;-82
2021/08/30 03:55:47;;;;;;;11.75;7.53;;;17.30;99.90;;;;;;5014855;28;20214;-82
2021/08/30 03:58:16;;;;;;;15.32;8.63;;;17.30;99.90;;;;;;5014695;28;20712;-82
2021/08/30 04:00:42;;;;;;;11.48;9.23;;;17.40;99.90;;;;;;5014442;28;20223;-82
2021/08/30 04:03:11;;;;;;;13.10;9.30;;;17.30;99.90;;;;;;5014361;28;20200;-82
2021/08/30 04:05:39;;;;;;;9.77;8.52;;;17.30;99.90;;;;;;5014247;28;20172;-82
2021/08/30 04:08:08;;;;;;;17.30;9.52;;;17.40;99.90;;;;;;5014245;28;20575;-82
2021/08/30 04:10:34;;;;;;;11.80;8.30;;;17.40;99.90;;;;;;5014520;28;20200;-82
2021/08/30 04:13:01;;;;;;;10.48;8.27;;;17.40;99.90;;;;;;5014237;28;20169;-82
2021/08/30 04:15:27;;;;;;;14.23;8.27;;;17.40;99.90;;;;;;5014171;28;20208;-82
2021/08/30 04:17:53;;;;;;;15.90;9.20;;;17.40;99.90;;;;;;5014001;28;20200;-82
2021/08/30 04:20:19;;;;;;;9.73;8.65;;;17.20;99.90;;;;;;5014123;28;20177;-82
2021/08/30 04:22:45;;;;;;;12.93;8.23;;;17.20;99.90;;;;;;5014104;28;20238;-81
2021/08/30 04:25:11;;;;;;;12.75;8.82;;;17.20;99.90;;;;;;5015369;28;20165;-81
2021/08/30 04:27:37;;;;;;;15.10;9.23;;;17.10;99.90;;;;;;5013934;28;20200;-81
2021/08/30 04:30:04;;;;;;;14.18;8.05;;;17.30;99.90;;;;;;5014016;28;20165;-82
2021/08/30 04:32:33;;;;;;;15.10;8.35;;;17.40;99.90;;;;;;5013367;28;20589;-81
2021/08/30 04:35:00;;;;;;;15.23;8.88;;;17.60;99.90;;;;;;5013786;28;20258;-81
2021/08/30 04:37:26;;;;;;;14.13;8.18;;;17.40;99.90;;;;;;5013626;28;20219;-81
2021/08/30 04:39:51;;;;;;;11.38;9.20;;;17.40;99.90;;;;;;5015012;28;20161;-81
2021/08/30 04:42:17;;;;;;;15.27;9.88;;;17.20;99.90;;;;;;5013702;28;20181;-82
2021/08/30 04:44:43;;;;;;;14.25;8.75;;;17.30;99.90;;;;;;5015051;28;20248;-82
2021/08/30 04:47:08;;;;;;;10.20;8.98;;;17.30;99.90;;;;;;5015116;28;20200;-82
2021/08/30 04:49:34;;;;;;;14.98;9.48;;;17.20;99.90;;;;;;5013802;28;20165;-82
2021/08/30 04:52:00;;;;;;;16.83;9.93;;;17.20;99.90;;;;;;5014487;28;20195;-82
2021/08/30 04:54:26;;;;;;;12.68;8.68;;;17.20;99.90;;;;;;5014710;28;20208;-82
2021/08/30 04:56:51;;;;;;;10.98;7.82;;;17.10;99.90;;;;;;5014804;28;20195;-82
2021/08/30 04:59:18;;;;;;;14.85;8.70;;;17.10;99.90;;;;;;5015019;28;20628;-82
2021/08/30 05:01:43;;;;;;;10.85;7.90;;;17.20;99.90;;;;;;5014975;28;20182;-82
2021/08/30 05:04:09;;;;;;;13.48;8.05;;;17.20;99.90;;;;;;5013309;28;20169;-82
2021/08/30 05:06:35;;;;;;;8.55;7.65;;;17.20;99.90;;;;;;5014514;28;20259;-82
2021/08/30 05:09:00;;;;;;;13.20;8.10;;;17.20;99.90;;;;;;5014456;28;20625;-82
2021/08/30 05:11:26;;;;;;;11.55;8.23;;;17.20;99.90;;;;;;5014562;28;20970;-81
2021/08/30 05:13:51;;;;;;;14.05;7.75;;;17.30;99.90;;;;;;5013177;28;20215;-82
2021/08/30 05:16:17;;;;;;;11.52;9.10;;;17.30;99.90;;;;;;5014606;28;20169;-81
2021/08/30 05:18:43;;;;;;;15.38;8.48;;;17.40;99.90;;;;;;5014321;28;20288;-82
2021/08/30 05:21:09;;;;;;;13.50;7.90;;;17.40;99.90;;;;;;5012935;28;20172;-81
2021/08/30 05:23:35;;;;;;;8.40;7.57;;;17.40;99.90;;;;;;5012622;28;20195;-81
2021/08/30 05:26:01;;;;;;;9.43;7.57;;;17.40;99.90;;;;;;5013486;28;20196;-82
2021/08/30 05:28:27;;;;;;;11.05;7.65;;;17.50;99.90;;;;;;5013114;28;20208;-82
2021/08/30 05:30:53;;;;;;;9.00;6.88;;;17.50;99.90;;;;;;5012884;28;20207;-81
2021/08/30 05:33:19;;;;;;;8.88;7.95;;;17.70;99.90;;;;;;5012846;28;20169;-81
2021/08/30 05:35:45;;;;;;;14.95;8.20;;;17.80;99.90;;;;;;5012371;28;20196;-81
2021/08/30 05:38:11;;;;;;;11.05;7.47;;;17.90;99.90;;;;;;5012821;28;20220;-82
2021/08/30 05:40:37;;;;;;;10.48;8.52;;;18.00;99.90;;;;;;5013119;28;20675;-82
2021/08/30 05:43:02;;;;;;;11.90;7.55;;;18.10;99.90;;;;;;5012976;28;20428;-82
2021/08/30 05:45:28;;;;;;;10.20;7.63;;;18.20;99.90;;;;;;5012904;28;20252;-82
2021/08/30 05:47:54;;;;;;;11.68;8.02;;;18.20;99.90;;;;;;5013820;28;20195;-81
2021/08/30 05:50:20;;;;;;;9.60;7.45;;;18.10;99.90;;;;;;5012513;28;20172;-80
2021/08/30 05:52:46;;;;;;;12.75;8.43;;;18.10;99.90;;;;;;5012409;28;20188;-80
2021/08/30 05:55:11;;;;;;;8.00;7.22;;;17.90;99.90;;;;;;5014388;28;20269;-81
2021/08/30 05:57:38;;;;;;;22.52;8.30;;;17.80;99.90;;;;;;5015291;28;20652;-80
2021/08/30 06:00:07;;;;;;;10.02;8.23;;;17.70;99.90;;;;;;5013816;28;20252;-81
2021/08/30 06:02:33;;;;;;;8.75;6.65;;;17.70;99.90;;;;;;5021654;28;20169;-81
2021/08/30 06:04:58;;;;;;;16.95;9.30;;;17.70;99.90;;;;;;5026874;28;20182;-82
2021/08/30 06:07:24;;;;;;;13.32;8.15;;;17.50;99.90;;;;;;5024135;28;20196;-81
2021/08/30 06:09:51;;;;;;;13.63;8.05;;;17.50;99.90;;;;;;5014878;28;20195;-86
2021/08/30 06:12:17;;;;;;;7.03;6.32;;;17.60;99.90;;;;;;5013275;28;20203;-81
2021/08/30 06:14:42;;;;;;;10.18;7.32;;;17.70;99.90;;;;;;5013127;28;20298;-86
2021/08/30 06:17:08;;;;;;;10.02;7.00;;;17.70;99.90;;;;;;5013010;28;20197;-87
2021/08/30 06:19:34;;;;;;;13.32;7.18;;;17.50;99.90;;;;;;5012924;28;20628;-84
2021/08/30 06:21:59;;;;;;;10.25;7.32;;;17.60;99.90;;;;;;5012672;28;20264;-85
2021/08/30 06:24:25;;;;;;;11.43;7.60;;;17.70;99.90;;;;;;5013954;28;20536;-84
2021/08/30 06:26:51;;;;;;;11.73;6.45;;;17.70;99.90;;;;;;5011877;28;20215;-84
2021/08/30 06:29:17;;;;;;;12.23;7.78;;;17.70;99.90;;;;;;5011987;28;20188;-83
2021/08/30 06:31:42;;;;;;;9.18;7.38;;;17.80;99.90;;;;;;5012680;28;20177;-82
2021/08/30 06:34:08;;;;;;;10.77;6.78;;;18.00;99.90;;;;;;5012298;28;20212;-82
2021/08/30 06:36:33;;;;;;;8.38;7.45;;;18.10;99.90;;;;;;5012122;28;20176;-84
2021/08/30 06:39:00;;;;;;;9.77;7.68;;;18.10;99.90;;;;;;5012436;28;20227;-87
2021/08/30 06:41:28;;;;;;;8.13;6.97;;;18.00;99.90;;;;;;5013869;28;20243;-87
2021/08/30 06:43:53;;;;;;;10.55;7.05;;;18.00;99.90;;;;;;5014294;28;20192;-85
2021/08/30 06:46:19;;;;;;;23.27;7.97;;;18.00;99.90;;;;;;5012628;28;20521;-83
2021/08/30 06:48:44;;;;;;;14.48;7.45;;;18.00;99.90;;;;;;5011888;28;20250;-85
2021/08/30 06:51:10;;;;;;;9.50;6.88;;;18.00;99.90;;;;;;5012671;28;20218;-84
2021/08/30 06:53:36;;;;;;;9.02;7.90;;;18.20;99.90;;;;;;5012516;28;20556;-87
2021/08/30 06:56:02;;;;;;;17.27;8.50;;;18.00;99.90;;;;;;5013415;28;20172;-88
2021/08/30 06:58:28;;;;;;;10.30;8.40;;;18.10;99.90;;;;;;5012330;28;20706;-82
2021/08/30 07:00:54;;;;;;;15.48;8.00;;;18.20;99.90;;;;;;5013282;28;20203;-86
2021/08/30 07:03:19;;;;;;;10.52;7.15;;;18.20;99.90;;;;;;5012955;28;20301;-85
2021/08/30 07:05:45;;;;;;;12.23;7.70;;;18.30;99.90;;;;;;5017015;28;20192;-83
2021/08/30 07:08:14;;;;;;;16.17;7.53;;;18.20;99.90;;;;;;5023344;28;20252;-86
2021/08/30 07:10:40;;;;;;;12.00;7.70;;;18.30;99.90;;;;;;5015968;28;20625;-85
2021/08/30 07:13:06;;;;;;;12.43;8.27;;;18.50;99.90;;;;;;5014621;28;20239;-85
2021/08/30 07:15:32;;;;;;;11.15;8.07;;;18.50;99.90;;;;;;5024407;28;20212;-85
2021/08/30 07:17:58;;;;;;;16.65;8.18;;;18.50;99.90;;;;;;5015483;28;20184;-86
2021/08/30 07:20:24;;;;;;;9.52;7.75;;;18.40;99.90;;;;;;5014348;28;20172;-86
2021/08/30 07:22:50;;;;;;;12.63;7.95;;;18.40;99.90;;;;;;5013059;28;20538;-86
2021/08/30 07:25:15;;;;;;;13.55;8.55;;;18.40;99.90;;;;;;5012630;28;20176;-86
2021/08/30 07:27:41;;;;;;;8.73;7.80;;;18.50;99.90;;;;;;5013768;28;20208;-85
2021/08/30 07:30:07;;;;;;;12.93;7.72;;;18.80;99.90;;;;;;5012902;28;20168;-86
2021/08/30 07:32:33;;;;;;;20.08;9.75;;;19.00;99.90;;;;;;5013692;28;20172;-85
2021/08/30 07:34:58;;;;;;;16.02;9.35;;;18.90;99.90;;;;;;5012977;28;20204;-85
2021/08/30 07:37:24;;;;;;;14.45;8.52;;;18.70;99.90;;;;;;5014111;28;20180;-85
2021/08/30 07:39:50;;;;;;;11.43;9.10;;;18.50;99.90;;;;;;5013826;28;20230;-88
2021/08/30 07:42:16;;;;;;;10.40;8.43;;;18.70;99.90;;;;;;5013453;28;20208;-90
2021/08/30 07:44:42;;;;;;;10.13;7.90;;;18.70;99.90;;;;;;5015322;28;20176;-88
2021/08/30 07:47:08;;;;;;;9.40;8.07;;;18.60;99.90;;;;;;5013488;28;20192;-88
2021/08/30 07:49:35;;;;;;;10.80;8.50;;;18.80;99.90;;;;;;5013587;28;20184;-88
2021/08/30 07:52:01;;;;;;;14.90;8.75;;;19.00;99.90;;;;;;5012304;28;20188;-85
2021/08/30 07:54:27;;;;;;;9.68;8.68;;;19.00;99.90;;;;;;5012501;28;20211;-85
2021/08/30 07:56:52;;;;;;;14.98;8.82;;;18.70;99.90;;;;;;5012683;28;20197;-84
2021/08/30 07:59:18;;;;;;;13.18;9.50;;;18.70;99.90;;;;;;5013372;28;20223;-83
2021/08/30 08:01:44;;;;;;;14.20;9.68;;;18.70;99.90;;;;;;5015651;28;20172;-84
2021/08/30 08:04:10;;;;;;;12.75;9.52;;;18.60;99.90;;;;;;5016106;28;20199;-83
2021/08/30 08:06:35;;;;;;;11.88;8.48;;;18.60;99.90;;;;;;5015875;28;20172;-84
2021/08/30 08:09:01;;;;;;;13.90;8.82;;;18.80;99.90;;;;;;5015600;28;20168;-83
2021/08/30 08:11:27;;;;;;;17.52;9.25;;;18.90;99.90;;;;;;5015793;28;20246;-83
2021/08/30 08:13:53;;;;;;;9.68;8.35;;;19.00;99.90;;;;;;5016687;28;20700;-83
2021/08/30 08:16:18;;;;;;;11.40;9.95;;;19.00;99.90;;;;;;5015414;28;20172;-83
2021/08/30 08:18:44;;;;;;;10.32;9.20;;;19.00;99.90;;;;;;5015868;28;20188;-84
2021/08/30 08:21:10;;;;;;;13.27;9.07;;;18.90;99.90;;;;;;4999923;28;20533;-84
2021/08/30 08:23:36;;;;;;;10.93;9.20;;;19.00;99.90;;;;;;5016535;28;20204;-84
2021/08/30 08:26:03;;;;;;;18.83;10.50;;;19.00;99.90;;;;;;5037072;28;20207;-84
2021/08/30 08:28:29;;;;;;;12.02;9.88;;;19.30;99.90;;;;;;5038019;28;20184;-84
2021/08/30 08:30:55;;;;;;;13.95;9.90;;;19.50;99.90;;;;;;5037356;28;20520;-86
2021/08/30 08:33:20;;;;;;;10.48;9.18;;;19.60;99.90;;;;;;5037347;28;20156;-83
2021/08/30 08:35:46;;;;;;;10.50;9.45;;;19.60;99.90;;;;;;5033827;28;20183;-84
2021/08/30 08:38:12;;;;;;;9.48;8.60;;;19.70;99.90;;;;;;5023877;28;20180;-81
2021/08/30 08:40:38;;;;;;;13.25;9.75;;;19.70;99.90;;;;;;5021637;28;20249;-85
2021/08/30 08:43:14;;;;;;;12.13;9.85;;;19.70;99.90;;;;;;5020971;28;20169;-84
2021/08/30 08:45:42;;;;;;;13.88;9.68;;;19.80;99.90;;;;;;5018183;28;20176;-79
2021/08/30 08:48:08;;;;;;;11.45;9.15;;;19.90;99.90;;;;;;5018497;28;20196;-83
2021/08/30 08:50:34;;;;;;;16.40;9.10;;;19.90;99.90;;;;;;5017024;28;20168;-84
2021/08/30 08:53:04;;;;;;;9.80;8.82;;;20.10;99.90;;;;;;5016569;28;20198;-84
2021/08/30 08:55:33;;;;;;;11.32;10.07;;;20.10;99.90;;;;;;5017805;28;20200;-84
2021/08/30 08:58:03;;;;;;;16.50;9.27;;;20.00;99.90;;;;;;5017207;28;20271;-86
2021/08/30 09:00:30;;;;;;;13.55;8.93;;;19.90;99.90;;;;;;5016003;28;20189;-84
2021/08/30 09:02:56;;;;;;;13.48;10.20;;;19.80;99.90;;;;;;5015916;28;20179;-85
2021/08/30 09:05:24;;;;;;;12.93;10.05;;;20.00;99.90;;;;;;5018193;28;20164;-84
2021/08/30 09:07:50;;;;;;;15.75;9.63;;;20.10;99.90;;;;;;5019505;28;20192;-85
2021/08/30 09:10:21;;;;;;;20.45;10.27;;;20.10;99.90;;;;;;5015743;28;20578;-84
2021/08/30 09:12:48;;;;;;;14.73;11.27;;;20.10;99.90;;;;;;5014695;28;20566;-84
2021/08/30 09:15:16;;;;;;;12.27;9.98;;;20.40;99.90;;;;;;5015248;28;20204;-84
2021/08/30 09:17:52;;;;;;;16.33;10.23;;;20.50;99.90;;;;;;5015380;28;20680;-84
2021/08/30 09:20:19;;;;;;;13.75;10.15;;;20.70;99.90;;;;;;5014741;28;20176;-84
2021/08/30 09:22:45;;;;;;;14.35;9.75;;;20.90;99.90;;;;;;5014360;28;20617;-84
2021/08/30 09:25:12;;;;;;;10.20;9.13;;;20.70;99.90;;;;;;5013936;28;20248;-83
2021/08/30 09:27:51;;;;;;;12.73;8.77;;;20.60;99.90;;;;;;5013751;28;20200;-85
2021/08/30 09:30:24;;;;;;;11.23;9.52;;;20.60;99.90;;;;;;5014326;28;20176;-85
2021/08/30 09:32:50;;;;;;;12.98;9.23;;;20.70;99.90;;;;;;5014699;28;20164;-81
2021/08/30 09:35:17;;;;;;;10.13;8.88;;;20.90;99.90;;;;;;5015678;28;20215;-85
2021/08/30 09:37:44;;;;;;;9.50;8.48;;;20.90;99.90;;;;;;5013876;28;20195;-84
2021/08/30 09:40:13;;;;;;;10.15;8.30;;;20.70;99.90;;;;;;5014229;28;20168;-85
2021/08/30 09:42:55;;;;;;;9.43;8.45;;;20.90;99.90;;;;;;5015460;28;20177;-82
2021/08/30 09:45:22;;;;;;;11.27;8.95;;;20.80;99.90;;;;;;5014982;28;20624;-83
2021/08/30 09:48:03;;;;;;;10.30;9.18;;;20.90;99.90;;;;;;5016799;28;20616;-83
2021/08/30 09:50:33;;;;;;;13.27;7.93;;;21.00;99.90;;;;;;5016030;28;20238;-83
2021/08/30 09:53:00;;;;;;;10.68;8.93;;;20.80;99.90;;;;;;5014170;28;20226;-80
2021/08/30 09:55:27;;;;;;;17.08;9.02;;;20.90;99.90;;;;;;5013522;28;20214;-83
2021/08/30 09:57:54;;;;;;;16.60;9.57;;;20.60;99.90;;;;;;5012136;28;20189;-81
2021/08/30 10:00:21;;;;;;;18.65;9.45;;;20.50;99.90;;;;;;5013845;28;20175;-81
2021/08/30 10:02:52;;;;;;;9.85;8.95;;;20.50;99.90;;;;;;5011652;28;20169;-81
2021/08/30 10:05:18;;;;;;;11.93;8.70;;;20.60;99.90;;;;;;5011676;28;20169;-82
2021/08/30 10:07:45;;;;;;;11.10;8.38;;;20.90;99.90;;;;;;5011947;28;20188;-81
2021/08/30 10:10:15;;;;;;;15.70;9.55;;;20.90;99.90;;;;;;5011569;28;20169;-81
2021/08/30 10:12:42;;;;;;;11.00;9.05;;;20.70;99.90;;;;;;5012468;28;20175;-85
2021/08/30 10:15:09;;;;;;;11.68;9.20;;;20.80;99.90;;;;;;5013863;28;20216;-82
2021/08/30 10:17:38;;;;;;;11.43;9.45;;;21.20;99.90;;;;;;5012150;28;20250;-82
2021/08/30 10:20:04;;;;;;;11.73;9.65;;;21.20;99.90;;;;;;5014493;28;20204;-82
2021/08/30 10:22:30;;;;;;;9.38;8.45;;;21.40;99.90;;;;;;5015249;28;20267;-82
2021/08/30 10:24:56;;;;;;;15.50;8.75;;;21.50;99.90;;;;;;5014095;28;20191;-83
2021/08/30 10:27:34;;;;;;;16.30;10.68;;;21.50;99.90;;;;;;5013964;28;20196;-82
2021/08/30 10:30:07;;;;;;;10.60;8.13;;;21.50;99.90;;;;;;5012322;28;20196;-82
2021/08/30 10:32:40;;;;;;;10.40;8.80;;;21.20;99.90;;;;;;5013887;28;20177;-86
2021/08/30 10:35:20;;;;;;;14.27;9.05;;;21.30;99.90;;;;;;5014001;28;20208;-85
2021/08/30 10:37:56;;;;;;;9.82;8.88;;;21.30;99.90;;;;;;5014433;28;20736;-85
2021/08/30 10:40:24;;;;;;;12.85;7.55;;;21.40;99.90;;;;;;5016984;28;20168;-85
2021/08/30 10:43:08;;;;;;;9.40;8.57;;;21.40;99.90;;;;;;5013955;28;20240;-86
2021/08/30 10:45:39;;;;;;;9.65;8.05;;;21.20;99.90;;;;;;5013615;28;20305;-85
2021/08/30 10:48:13;;;;;;;12.57;8.05;;;21.30;99.90;;;;;;5014270;28;20509;-86
2021/08/30 10:50:42;;;;;;;9.32;8.30;;;21.40;99.90;;;;;;5015002;28;20188;-86
2021/08/30 10:53:20;;;;;;;8.88;7.90;;;21.40;99.90;;;;;;5013138;28;20195;-84
2021/08/30 10:55:49;;;;;;;8.85;7.60;;;21.20;99.90;;;;;;5013431;28;20211;-85
2021/08/30 10:58:20;;;;;;;9.90;8.38;;;20.90;99.90;;;;;;5012223;28;20656;-85
2021/08/30 11:00:49;;;;;;;8.52;7.50;;;21.20;99.90;;;;;;5013084;28;20203;-84
2021/08/30 11:03:29;;;;;;;15.65;7.70;;;21.50;99.90;;;;;;5012837;28;20169;-81
2021/08/30 11:06:06;;;;;;;10.52;8.32;;;21.70;99.90;;;;;;5011183;28;20168;-81
2021/08/30 11:08:33;;;;;;;11.43;7.65;;;21.90;99.90;;;;;;5012188;28;20207;-89
2021/08/30 11:11:20;;;;;;;10.48;6.97;;;22.20;99.90;;;;;;5015328;28;20736;-90
2021/08/30 11:14:09;;;;;;;8.57;7.65;;;22.50;99.90;;;;;;5014342;28;20199;-86
2021/08/30 11:16:36;;;;;;;8.25;7.53;;;22.40;99.90;;;;;;5012830;28;20191;-86
2021/08/30 11:19:14;;;;;;;11.73;7.10;;;22.30;99.90;;;;;;5013288;28;20243;-86
2021/08/30 11:21:57;;;;;;;10.80;7.32;;;22.40;99.90;;;;;;5012976;28;20192;-86
2021/08/30 11:24:35;;;;;;;10.63;6.82;;;22.30;99.90;;;;;;5015182;28;20700;-85
2021/08/30 11:27:08;;;;;;;14.93;7.05;;;21.90;99.90;;;;;;5014105;28;20195;-86
2021/08/30 11:29:41;;;;;;;8.20;7.43;;;21.70;99.90;;;;;;5014233;28;20180;-87
2021/08/30 11:32:07;;;;;;;8.57;7.70;;;22.20;99.90;;;;;;5014900;28;20263;-88
2021/08/30 11:34:36;;;;;;;10.52;7.13;;;22.50;99.90;;;;;;5016021;28;20269;-89
2021/08/30 11:37:03;;;;;;;7.97;6.55;;;22.30;99.90;;;;;;5019355;28;20197;-87
2021/08/30 11:39:31;;;;;;;12.80;7.63;;;22.10;99.90;;;;;;5018465;28;20201;-86
2021/08/30 11:42:03;;;;;;;13.02;8.18;;;22.10;99.90;;;;;;5017613;28;20291;-87
2021/08/30 11:44:30;;;;;;;11.13;7.05;;;22.30;99.90;;;;;;5017356;28;20188;-86
2021/08/30 11:46:59;;;;;;;10.93;8.07;;;22.60;99.90;;;;;;5017635;28;20184;-88
2021/08/30 11:49:27;;;;;;;9.52;7.32;;;23.10;99.90;;;;;;5017660;28;20176;-86
2021/08/30 11:51:56;;;;;;;11.70;8.93;;;22.90;99.90;;;;;;5018836;28;20199;-89
2021/08/30 11:54:34;;;;;;;12.18;9.10;;;22.50;99.90;;;;;;5017593;28;20563;-88
2021/08/30 11:57:10;;;;;;;19.13;10.18;;;22.80;99.90;;;;;;5017915;28;20226;-87
2021/08/30 11:59:48;;;;;;;15.63;9.95;;;22.40;99.90;;;;;;5018415;28;20168;-87
2021/08/30 12:02:15;;;;;;;14.70;8.75;;;22.00;99.90;;;;;;5017133;28;20184;-86
2021/08/30 12:04:40;;;;;;;18.25;9.23;;;21.90;99.90;;;;;;5016281;28;20199;-87
2021/08/30 12:07:11;;;;;;;11.52;9.95;;;22.30;99.90;;;;;;5016941;28;20180;-85
2021/08/30 12:09:47;;;;;;;10.25;8.70;;;22.50;99.90;;;;;;5016056;28;20525;-85
2021/08/30 12:12:22;;;;;;;14.75;9.98;;;22.60;99.90;;;;;;5016133;28;20263;-85
2021/08/30 12:14:54;;;;;;;18.88;10.18;;;22.40;99.90;;;;;;5016873;28;20218;-83
2021/08/30 12:17:22;;;;;;;12.50;10.30;;;22.30;99.90;;;;;;5015915;28;20562;-85
2021/08/30 12:19:52;;;;;;;11.15;9.25;;;22.50;99.90;;;;;;5016353;28;20164;-84
2021/08/30 12:22:32;;;;;;;11.15;8.90;;;22.70;99.90;;;;;;5016068;28;20338;-84
2021/08/30 12:25:02;;;;;;;13.38;9.93;;;22.40;99.90;;;;;;5016425;28;20183;-84
2021/08/30 12:27:40;;;;;;;15.48;10.40;;;22.30;99.90;;;;;;5015961;28;20682;-86
2021/08/30 12:30:19;;;;;;;21.23;11.27;;;22.10;99.90;;;;;;5016094;28;20172;-86
2021/08/30 12:32:58;;;;;;;11.93;10.70;;;22.10;99.90;;;;;;5016513;28;20168;-84
2021/08/30 12:35:28;;;;;;;10.68;9.48;;;22.30;99.90;;;;;;5016236;28;20208;-85
2021/08/30 12:37:56;;;;;;;13.75;10.95;;;22.50;99.90;;;;;;5016097;28;20189;-84
2021/08/30 12:40:23;;;;;;;17.25;10.75;;;22.60;99.90;;;;;;5016078;28;20180;-85
2021/08/30 12:42:49;;;;;;;11.35;10.18;;;22.40;99.90;;;;;;5015440;28;20169;-84
2021/08/30 12:45:16;;;;;;;10.68;9.55;;;22.50;99.90;;;;;;5016873;28;20187;-85
2021/08/30 12:47:43;;;;;;;10.65;8.98;;;22.70;99.90;;;;;;5016219;28;20190;-85